sensor_id;sensor_type;location;lat;lon;timestamp;pressure;altitude;pressure_sealevel;temperature;humidity
39083;BME280;24834;44.444;26.098;2023-04-06T00:00:40;100161.31;;;7.44;
39083;BME280;24834;44.444;26.098;2023-04-06T00:06:42;100161.84;;;7.46;
39083;BME280;24834;44.444;26.098;2023-04-06T00:12:44;100156.88;;;7.50;
39083;BME280;24834;44.444;26.098;2023-04-06T00:18:47;100146.59;;;7.08;
39083;BME280;24834;44.444;26.098;2023-04-06T00:24:50;100149.78;;;7.15;
39083;BME280;24834;44.444;26.098;2023-04-06T00:30:53;100140.16;;;7.36;
39083;BME280;24834;44.444;26.098;2023-04-06T00:36:58;100132.50;;;6.99;
39083;BME280;24834;44.444;26.098;2023-04-06T00:43:00;100128.06;;;7.05;
39083;BME280;24834;44.444;26.098;2023-04-06T00:49:03;100127.59;;;7.18;
39083;BME280;24834;44.444;26.098;2023-04-06T00:55:07;100132.81;;;7.28;
39083;BME280;24834;44.444;26.098;2023-04-06T01:01:14;100117.38;;;7.16;
39083;BME280;24834;44.444;26.098;2023-04-06T01:07:18;100113.72;;;7.32;
39083;BME280;24834;44.444;26.098;2023-04-06T01:13:36;100103.53;;;7.16;
39083;BME280;24834;44.444;26.098;2023-04-06T01:19:43;100106.69;;;7.18;
39083;BME280;24834;44.444;26.098;2023-04-06T01:25:55;100096.19;;;7.38;
39083;BME280;24834;44.444;26.098;2023-04-06T01:31:59;100085.47;;;7.65;
39083;BME280;24834;44.444;26.098;2023-04-06T01:38:06;100078.13;;;7.57;
39083;BME280;24834;44.444;26.098;2023-04-06T01:44:10;100071.59;;;7.44;
39083;BME280;24834;44.444;26.098;2023-04-06T01:50:15;100079.22;;;7.35;
39083;BME280;24834;44.444;26.098;2023-04-06T01:56:20;100067.69;;;7.67;
39083;BME280;24834;44.444;26.098;2023-04-06T02:02:36;100063.78;;;7.59;
39083;BME280;24834;44.444;26.098;2023-04-06T02:08:45;100048.34;;;7.47;
39083;BME280;24834;44.444;26.098;2023-04-06T02:14:49;100046.00;;;7.61;
39083;BME280;24834;44.444;26.098;2023-04-06T02:20:51;100041.03;;;7.50;
39083;BME280;24834;44.444;26.098;2023-04-06T02:26:53;100042.56;;;7.56;
39083;BME280;24834;44.444;26.098;2023-04-06T02:32:56;100031.91;;;7.37;
39083;BME280;24834;44.444;26.098;2023-04-06T02:39:03;100039.91;;;7.76;
39083;BME280;24834;44.444;26.098;2023-04-06T02:45:07;100029.00;;;7.49;
39083;BME280;24834;44.444;26.098;2023-04-06T02:51:15;100030.31;;;7.36;
39083;BME280;24834;44.444;26.098;2023-04-06T02:57:24;100026.13;;;7.30;
39083;BME280;24834;44.444;26.098;2023-04-06T03:03:27;100026.13;;;7.20;
39083;BME280;24834;44.444;26.098;2023-04-06T03:09:31;100032.91;;;7.61;
39083;BME280;24834;44.444;26.098;2023-04-06T03:15:33;100032.41;;;7.24;
39083;BME280;24834;44.444;26.098;2023-04-06T03:21:46;100021.66;;;7.45;
39083;BME280;24834;44.444;26.098;2023-04-06T03:27:51;100022.47;;;7.51;
39083;BME280;24834;44.444;26.098;2023-04-06T03:33:55;100028.69;;;7.75;
39083;BME280;24834;44.444;26.098;2023-04-06T03:40:03;100034.44;;;7.77;
39083;BME280;24834;44.444;26.098;2023-04-06T03:46:05;100022.97;;;7.53;
39083;BME280;24834;44.444;26.098;2023-04-06T03:52:08;100025.28;;;7.65;
39083;BME280;24834;44.444;26.098;2023-04-06T03:58:10;100024.25;;;7.56;
39083;BME280;24834;44.444;26.098;2023-04-06T04:04:13;100033.16;;;7.44;
39083;BME280;24834;44.444;26.098;2023-04-06T04:10:16;100036.53;;;7.75;
39083;BME280;24834;44.444;26.098;2023-04-06T04:16:18;100030.81;;;7.53;
